sensor_id;sensor_type;location;lat;lon;timestamp;P1;durP1;ratioP1;P2;durP2;ratioP2
79173;SDS011;68599;49.142;9.124;2023-11-21T00:02:23;1.50;;;0.70;;
79173;SDS011;68599;49.142;9.124;2023-11-21T00:04:50;1.20;;;0.60;;
79173;SDS011;68599;49.142;9.124;2023-11-21T00:07:17;1.20;;;0.60;;
79173;SDS011;68599;49.142;9.124;2023-11-21T00:09:43;1.20;;;0.40;;
79173;SDS011;68599;49.142;9.124;2023-11-21T00:12:10;3.30;;;0.50;;
79173;SDS011;68599;49.142;9.124;2023-11-21T00:14:37;1.60;;;0.40;;
79173;SDS011;68599;49.142;9.124;2023-11-21T00:17:05;0.70;;;0.30;;
79173;SDS011;68599;49.142;9.124;2023-11-21T00:19:32;1.70;;;0.50;;
79173;SDS011;68599;49.142;9.124;2023-11-21T00:22:02;0.70;;;0.30;;
79173;SDS011;68599;49.142;9.124;2023-11-21T00:24:29;1.50;;;0.30;;
79173;SDS011;68599;49.142;9.124;2023-11-21T00:26:55;2.20;;;0.50;;
79173;SDS011;68599;49.142;9.124;2023-11-21T00:29:22;2.80;;;0.40;;
79173;SDS011;68599;49.142;9.124;2023-11-21T00:31:49;1.50;;;0.20;;
79173;SDS011;68599;49.142;9.124;2023-11-21T00:34:15;1.50;;;0.30;;
79173;SDS011;68599;49.142;9.124;2023-11-21T00:36:42;0.80;;;0.30;;
79173;SDS011;68599;49.142;9.124;2023-11-21T00:39:08;0.40;;;0.20;;
79173;SDS011;68599;49.142;9.124;2023-11-21T00:41:35;0.70;;;0.30;;
79173;SDS011;68599;49.142;9.124;2023-11-21T00:44:03;1.40;;;0.10;;
79173;SDS011;68599;49.142;9.124;2023-11-21T00:46:31;1.30;;;0.40;;
79173;SDS011;68599;49.142;9.124;2023-11-21T00:48:58;1.30;;;0.40;;
79173;SDS011;68599;49.142;9.124;2023-11-21T00:51:25;1.00;;;0.30;;
79173;SDS011;68599;49.142;9.124;2023-11-21T00:53:52;1.70;;;0.20;;
79173;SDS011;68599;49.142;9.124;2023-11-21T00:56:18;1.80;;;0.50;;
79173;SDS011;68599;49.142;9.124;2023-11-21T00:58:45;0.90;;;0.30;;
79173;SDS011;68599;49.142;9.124;2023-11-21T01:01:16;2.10;;;0.50;;
79173;SDS011;68599;49.142;9.124;2023-11-21T01:03:43;1.60;;;0.50;;
79173;SDS011;68599;49.142;9.124;2023-11-21T01:06:10;0.50;;;0.30;;
79173;SDS011;68599;49.142;9.124;2023-11-21T01:08:40;1.00;;;0.20;;
79173;SDS011;68599;49.142;9.124;2023-11-21T01:11:06;3.00;;;0.50;;
79173;SDS011;68599;49.142;9.124;2023-11-21T01:13:34;1.20;;;0.60;;
79173;SDS011;68599;49.142;9.124;2023-11-21T01:16:01;0.70;;;0.30;;
79173;SDS011;68599;49.142;9.124;2023-11-21T01:18:28;1.60;;;0.60;;
79173;SDS011;68599;49.142;9.124;2023-11-21T01:20:55;0.60;;;0.40;;
79173;SDS011;68599;49.142;9.124;2023-11-21T01:23:22;0.80;;;0.40;;
79173;SDS011;68599;49.142;9.124;2023-11-21T01:25:49;0.90;;;0.20;;
79173;SDS011;68599;49.142;9.124;2023-11-21T01:28:18;1.20;;;0.30;;
79173;SDS011;68599;49.142;9.124;2023-11-21T01:30:45;1.80;;;0.40;;
79173;SDS011;68599;49.142;9.124;2023-11-21T01:33:12;0.60;;;0.30;;
79173;SDS011;68599;49.142;9.124;2023-11-21T01:35:39;2.10;;;0.50;;
79173;SDS011;68599;49.142;9.124;2023-11-21T01:38:07;1.30;;;0.40;;
79173;SDS011;68599;49.142;9.124;2023-11-21T01:40:34;1.50;;;0.50;;
79173;SDS011;68599;49.142;9.124;2023-11-21T01:43:02;3.20;;;0.40;;
79173;SDS011;68599;49.142;9.124;2023-11-21T01:45:32;0.50;;;0.20;;
79173;SDS011;68599;49.142;9.124;2023-11-21T01:48:00;2.00;;;0.30;;
79173;SDS011;68599;49.142;9.124;2023-11-21T01:50:28;0.80;;;0.20;;
79173;SDS011;68599;49.142;9.124;2023-11-21T01:52:55;1.10;;;0.40;;
79173;SDS011;68599;49.142;9.124;2023-11-21T01:55:22;0.90;;;0.30;;
79173;SDS011;68599;49.142;9.124;2023-11-21T01:57:54;1.60;;;0.50;;
79173;SDS011;68599;49.142;9.124;2023-11-21T02:00:22;1.50;;;0.40;;
79173;SDS011;68599;49.142;9.124;2023-11-21T02:02:50;1.20;;;0.40;;
79173;SDS011;68599;49.142;9.124;2023-11-21T02:05:18;0.70;;;0.10;;
79173;SDS011;68599;49.142;9.124;2023-11-21T02:07:46;2.90;;;0.20;;
79173;SDS011;68599;49.142;9.124;2023-11-21T02:10:15;1.70;;;0.50;;
79173;SDS011;68599;49.142;9.124;2023-11-21T02:12:43;0.80;;;0.20;;
79173;SDS011;68599;49.142;9.124;2023-11-21T02:15:12;2.40;;;0.80;;
79173;SDS011;68599;49.142;9.124;2023-11-21T02:17:54;0.70;;;0.20;;
79173;SDS011;68599;49.142;9.124;2023-11-21T02:20:21;1.40;;;0.30;;
79173;SDS011;68599;49.142;9.124;2023-11-21T02:22:55;1.00;;;0.30;;
79173;SDS011;68599;49.142;9.124;2023-11-21T02:25:30;1.80;;;0.30;;
79173;SDS011;68599;49.142;9.124;2023-11-21T02:28:00;1.30;;;0.30;;
79173;SDS011;68599;49.142;9.124;2023-11-21T02:30:27;1.40;;;0.40;;
79173;SDS011;68599;49.142;9.124;2023-11-21T02:32:55;1.90;;;0.40;;
79173;SDS011;68599;49.142;9.124;2023-11-21T02:35:25;2.00;;;0.50;;
79173;SDS011;68599;49.142;9.124;2023-11-21T02:37:52;1.30;;;0.30;;
79173;SDS011;68599;49.142;9.124;2023-11-21T02:40:20;3.80;;;0.40;;
79173;SDS011;68599;49.142;9.124;2023-11-21T02:42:47;1.00;;;0.30;;
79173;SDS011;68599;49.142;9.124;2023-11-21T02:45:14;0.90;;;0.30;;
79173;SDS011;68599;49.142;9.124;2023-11-21T02:47:44;1.00;;;0.10;;
79173;SDS011;68599;49.142;9.124;2023-11-21T02:50:12;1.20;;;0.40;;
79173;SDS011;68599;49.142;9.124;2023-11-21T02:52:39;1.50;;;0.30;;
79173;SDS011;68599;49.142;9.124;2023-11-21T02:55:09;0.60;;;0.20;;
79173;SDS011;68599;49.142;9.124;2023-11-21T02:57:35;1.20;;;0.30;;
79173;SDS011;68599;49.142;9.124;2023-11-21T03:00:02;1.30;;;0.30;;
79173;SDS011;68599;49.142;9.124;2023-11-21T03:02:33;1.70;;;0.40;;
79173;SDS011;68599;49.142;9.124;2023-11-21T03:05:07;1.80;;;0.20;;
79173;SDS011;68599;49.142;9.124;2023-11-21T03:07:38;0.70;;;0.30;;
79173;SDS011;68599;49.142;9.124;2023-11-21T03:10:07;0.30;;;0.20;;
79173;SDS011;68599;49.142;9.124;2023-11-21T03:12:38;0.50;;;0.10;;
79173;SDS011;68599;49.142;9.124;2023-11-21T03:15:06;1.60;;;0.50;;
79173;SDS011;68599;49.142;9.124;2023-11-21T03:17:33;1.40;;;0.30;;
79173;SDS011;68599;49.142;9.124;2023-11-21T03:20:03;1.50;;;0.30;;
79173;SDS011;68599;49.142;9.124;2023-11-21T03:22:31;1.40;;;0.60;;
79173;SDS011;68599;49.142;9.124;2023-11-21T03:24:58;0.60;;;0.30;;
79173;SDS011;68599;49.142;9.124;2023-11-21T03:27:25;1.20;;;0.30;;
79173;SDS011;68599;49.142;9.124;2023-11-21T03:29:51;2.10;;;0.30;;
79173;SDS011;68599;49.142;9.124;2023-11-21T03:32:18;1.90;;;0.50;;
79173;SDS011;68599;49.142;9.124;2023-11-21T03:34:54;1.10;;;0.40;;
79173;SDS011;68599;49.142;9.124;2023-11-21T03:37:26;1.80;;;0.40;;
79173;SDS011;68599;49.142;9.124;2023-11-21T03:39:56;1.10;;;0.50;;
79173;SDS011;68599;49.142;9.124;2023-11-21T03:42:23;0.80;;;0.30;;
79173;SDS011;68599;49.142;9.124;2023-11-21T03:44:53;1.80;;;0.40;;
79173;SDS011;68599;49.142;9.124;2023-11-21T03:47:20;2.00;;;0.40;;
79173;SDS011;68599;49.142;9.124;2023-11-21T03:49:47;0.90;;;0.20;;
79173;SDS011;68599;49.142;9.124;2023-11-21T03:52:14;1.60;;;0.30;;
79173;SDS011;68599;49.142;9.124;2023-11-21T03:54:40;0.80;;;0.20;;
79173;SDS011;68599;49.142;9.124;2023-11-21T03:57:07;1.30;;;0.20;;
79173;SDS011;68599;49.142;9.124;2023-11-21T03:59:34;0.70;;;0.40;;
79173;SDS011;68599;49.142;9.124;2023-11-21T04:02:00;1.00;;;0.30;;
79173;SDS011;68599;49.142;9.124;2023-11-21T04:04:27;2.20;;;0.60;;
79173;SDS011;68599;49.142;9.124;2023-11-21T04:06:54;0.70;;;0.20;;
79173;SDS011;68599;49.142;9.124;2023-11-21T04:09:20;0.40;;;0.20;;
79173;SDS011;68599;49.142;9.124;2023-11-21T04:11:47;1.60;;;0.30;;
79173;SDS011;68599;49.142;9.124;2023-11-21T04:14:14;1.60;;;0.40;;
79173;SDS011;68599;49.142;9.124;2023-11-21T04:16:41;0.80;;;0.30;;
79173;SDS011;68599;49.142;9.124;2023-11-21T04:19:08;1.00;;;0.20;;
79173;SDS011;68599;49.142;9.124;2023-11-21T04:21:41;1.80;;;0.30;;
79173;SDS011;68599;49.142;9.124;2023-11-21T04:24:09;0.70;;;0.30;;
79173;SDS011;68599;49.142;9.124;2023-11-21T04:26:36;0.80;;;0.30;;
79173;SDS011;68599;49.142;9.124;2023-11-21T04:29:03;3.60;;;0.30;;
79173;SDS011;68599;49.142;9.124;2023-11-21T04:31:31;2.80;;;0.40;;
79173;SDS011;68599;49.142;9.124;2023-11-21T04:33:58;3.10;;;0.80;;
79173;SDS011;68599;49.142;9.124;2023-11-21T04:36:25;1.00;;;0.30;;
79173;SDS011;68599;49.142;9.124;2023-11-21T04:38:51;1.20;;;0.40;;
79173;SDS011;68599;49.142;9.124;2023-11-21T04:41:18;1.60;;;0.50;;
79173;SDS011;68599;49.142;9.124;2023-11-21T04:43:45;0.70;;;0.40;;
79173;SDS011;68599;49.142;9.124;2023-11-21T04:46:11;2.40;;;0.40;;
79173;SDS011;68599;49.142;9.124;2023-11-21T04:48:38;0.80;;;0.30;;
79173;SDS011;68599;49.142;9.124;2023-11-21T04:51:05;1.80;;;0.50;;
79173;SDS011;68599;49.142;9.124;2023-11-21T04:53:31;2.50;;;0.50;;
79173;SDS011;68599;49.142;9.124;2023-11-21T04:55:58;3.30;;;0.40;;
79173;SDS011;68599;49.142;9.124;2023-11-21T04:58:25;2.10;;;0.30;;
79173;SDS011;68599;49.142;9.124;2023-11-21T05:00:51;0.80;;;0.30;;
79173;SDS011;68599;49.142;9.124;2023-11-21T05:03:18;2.10;;;0.80;;
79173;SDS011;68599;49.142;9.124;2023-11-21T05:05:45;4.30;;;1.10;;
79173;SDS011;68599;49.142;9.124;2023-11-21T05:08:12;4.00;;;1.50;;
79173;SDS011;68599;49.142;9.124;2023-11-21T05:10:39;1.90;;;0.90;;
79173;SDS011;68599;49.142;9.124;2023-11-21T05:15:36;3.80;;;0.80;;
79173;SDS011;68599;49.142;9.124;2023-11-21T05:18:05;2.30;;;0.70;;
79173;SDS011;68599;49.142;9.124;2023-11-21T05:20:33;1.60;;;0.40;;
79173;SDS011;68599;49.142;9.124;2023-11-21T05:22:59;0.50;;;0.30;;
79173;SDS011;68599;49.142;9.124;2023-11-21T05:25:26;1.10;;;0.40;;
79173;SDS011;68599;49.142;9.124;2023-11-21T05:27:53;1.10;;;0.50;;
79173;SDS011;68599;49.142;9.124;2023-11-21T05:30:27;1.80;;;0.60;;
79173;SDS011;68599;49.142;9.124;2023-11-21T05:32:54;1.20;;;0.50;;
79173;SDS011;68599;49.142;9.124;2023-11-21T05:35:21;1.50;;;0.20;;
79173;SDS011;68599;49.142;9.124;2023-11-21T05:37:47;1.00;;;0.30;;
79173;SDS011;68599;49.142;9.124;2023-11-21T05:40:14;1.20;;;0.40;;
79173;SDS011;68599;49.142;9.124;2023-11-21T05:42:41;0.70;;;0.20;;
79173;SDS011;68599;49.142;9.124;2023-11-21T05:45:08;2.10;;;0.60;;
79173;SDS011;68599;49.142;9.124;2023-11-21T05:47:40;1.60;;;0.40;;
79173;SDS011;68599;49.142;9.124;2023-11-21T05:50:08;0.70;;;0.40;;
79173;SDS011;68599;49.142;9.124;2023-11-21T05:52:41;1.30;;;0.60;;
79173;SDS011;68599;49.142;9.124;2023-11-21T05:55:12;2.20;;;0.60;;
79173;SDS011;68599;49.142;9.124;2023-11-21T05:57:40;1.60;;;0.50;;
79173;SDS011;68599;49.142;9.124;2023-11-21T06:00:08;0.90;;;0.40;;
79173;SDS011;68599;49.142;9.124;2023-11-21T06:02:49;1.40;;;0.50;;
79173;SDS011;68599;49.142;9.124;2023-11-21T06:05:21;2.00;;;0.80;;
79173;SDS011;68599;49.142;9.124;2023-11-21T06:07:50;1.10;;;0.50;;
79173;SDS011;68599;49.142;9.124;2023-11-21T06:10:22;1.00;;;0.60;;
79173;SDS011;68599;49.142;9.124;2023-11-21T06:12:51;0.70;;;0.50;;
79173;SDS011;68599;49.142;9.124;2023-11-21T06:15:18;2.70;;;0.70;;
79173;SDS011;68599;49.142;9.124;2023-11-21T06:17:50;2.20;;;1.00;;
79173;SDS011;68599;49.142;9.124;2023-11-21T06:20:21;5.30;;;2.00;;
79173;SDS011;68599;49.142;9.124;2023-11-21T06:22:49;2.10;;;0.90;;
79173;SDS011;68599;49.142;9.124;2023-11-21T06:25:17;2.40;;;0.80;;
79173;SDS011;68599;49.142;9.124;2023-11-21T06:27:45;2.30;;;0.80;;
79173;SDS011;68599;49.142;9.124;2023-11-21T06:30:14;3.10;;;0.70;;
79173;SDS011;68599;49.142;9.124;2023-11-21T06:32:46;1.50;;;0.80;;
79173;SDS011;68599;49.142;9.124;2023-11-21T06:35:14;1.80;;;0.60;;
79173;SDS011;68599;49.142;9.124;2023-11-21T06:37:43;1.10;;;0.70;;
79173;SDS011;68599;49.142;9.124;2023-11-21T06:40:16;0.60;;;0.40;;
79173;SDS011;68599;49.142;9.124;2023-11-21T06:42:45;1.70;;;0.70;;
79173;SDS011;68599;49.142;9.124;2023-11-21T06:45:13;2.20;;;0.70;;
79173;SDS011;68599;49.142;9.124;2023-11-21T06:47:41;2.00;;;0.60;;
79173;SDS011;68599;49.142;9.124;2023-11-21T06:50:09;1.50;;;0.90;;
79173;SDS011;68599;49.142;9.124;2023-11-21T06:52:35;1.70;;;0.70;;
79173;SDS011;68599;49.142;9.124;2023-11-21T06:55:02;2.50;;;0.70;;
79173;SDS011;68599;49.142;9.124;2023-11-21T06:57:30;1.30;;;0.60;;
79173;SDS011;68599;49.142;9.124;2023-11-21T06:59:57;1.40;;;0.50;;
79173;SDS011;68599;49.142;9.124;2023-11-21T07:02:24;1.70;;;0.50;;
79173;SDS011;68599;49.142;9.124;2023-11-21T07:04:51;1.40;;;0.50;;
79173;SDS011;68599;49.142;9.124;2023-11-21T07:07:18;1.50;;;0.60;;
79173;SDS011;68599;49.142;9.124;2023-11-21T07:09:45;0.90;;;0.40;;
79173;SDS011;68599;49.142;9.124;2023-11-21T07:12:12;1.20;;;0.50;;
79173;SDS011;68599;49.142;9.124;2023-11-21T07:14:40;2.70;;;0.60;;
79173;SDS011;68599;49.142;9.124;2023-11-21T07:17:09;1.10;;;0.40;;
79173;SDS011;68599;49.142;9.124;2023-11-21T07:19:36;1.20;;;0.40;;
79173;SDS011;68599;49.142;9.124;2023-11-21T07:22:03;2.40;;;0.50;;
79173;SDS011;68599;49.142;9.124;2023-11-21T07:24:31;0.70;;;0.30;;
79173;SDS011;68599;49.142;9.124;2023-11-21T07:26:59;1.30;;;0.50;;
79173;SDS011;68599;49.142;9.124;2023-11-21T07:29:25;1.20;;;0.50;;
79173;SDS011;68599;49.142;9.124;2023-11-21T07:31:52;0.90;;;0.50;;
79173;SDS011;68599;49.142;9.124;2023-11-21T07:36:47;1.10;;;0.50;;
79173;SDS011;68599;49.142;9.124;2023-11-21T07:39:14;0.40;;;0.20;;
79173;SDS011;68599;49.142;9.124;2023-11-21T07:41:42;1.80;;;0.40;;
79173;SDS011;68599;49.142;9.124;2023-11-21T07:44:16;2.50;;;0.40;;
79173;SDS011;68599;49.142;9.124;2023-11-21T07:58:02;0.70;;;0.50;;
79173;SDS011;68599;49.142;9.124;2023-11-21T08:00:30;1.30;;;0.60;;
79173;SDS011;68599;49.142;9.124;2023-11-21T08:02:57;1.80;;;0.70;;
79173;SDS011;68599;49.142;9.124;2023-11-21T08:05:24;1.80;;;0.70;;
79173;SDS011;68599;49.142;9.124;2023-11-21T08:08:02;2.50;;;0.90;;
79173;SDS011;68599;49.142;9.124;2023-11-21T08:10:29;1.70;;;0.80;;
79173;SDS011;68599;49.142;9.124;2023-11-21T08:12:56;0.90;;;0.50;;
79173;SDS011;68599;49.142;9.124;2023-11-21T08:15:23;0.70;;;0.50;;
79173;SDS011;68599;49.142;9.124;2023-11-21T08:17:50;1.40;;;0.70;;
79173;SDS011;68599;49.142;9.124;2023-11-21T08:20:16;2.50;;;0.80;;
79173;SDS011;68599;49.142;9.124;2023-11-21T08:22:44;2.90;;;0.80;;
79173;SDS011;68599;49.142;9.124;2023-11-21T08:25:11;1.20;;;0.60;;
79173;SDS011;68599;49.142;9.124;2023-11-21T08:27:39;1.50;;;0.60;;
79173;SDS011;68599;49.142;9.124;2023-11-21T08:30:07;1.00;;;0.60;;
79173;SDS011;68599;49.142;9.124;2023-11-21T08:32:34;1.10;;;0.60;;
79173;SDS011;68599;49.142;9.124;2023-11-21T08:37:28;1.40;;;0.80;;
79173;SDS011;68599;49.142;9.124;2023-11-21T08:39:57;2.40;;;1.20;;
79173;SDS011;68599;49.142;9.124;2023-11-21T08:42:26;1.60;;;0.90;;
79173;SDS011;68599;49.142;9.124;2023-11-21T08:44:56;1.70;;;0.60;;
79173;SDS011;68599;49.142;9.124;2023-11-21T08:47:24;3.00;;;0.70;;
79173;SDS011;68599;49.142;9.124;2023-11-21T08:49:52;1.80;;;0.50;;
79173;SDS011;68599;49.142;9.124;2023-11-21T08:52:22;1.50;;;0.70;;
79173;SDS011;68599;49.142;9.124;2023-11-21T08:54:49;1.50;;;0.80;;
79173;SDS011;68599;49.142;9.124;2023-11-21T08:59:49;1.50;;;0.70;;
79173;SDS011;68599;49.142;9.124;2023-11-21T09:02:21;1.30;;;0.60;;
79173;SDS011;68599;49.142;9.124;2023-11-21T09:04:49;3.40;;;1.40;;
79173;SDS011;68599;49.142;9.124;2023-11-21T09:07:19;1.00;;;0.70;;
79173;SDS011;68599;49.142;9.124;2023-11-21T09:09:47;1.50;;;0.70;;
79173;SDS011;68599;49.142;9.124;2023-11-21T09:12:15;1.20;;;0.70;;
79173;SDS011;68599;49.142;9.124;2023-11-21T09:14:42;1.70;;;0.80;;
79173;SDS011;68599;49.142;9.124;2023-11-21T09:17:10;2.30;;;1.00;;
79173;SDS011;68599;49.142;9.124;2023-11-21T09:19:38;1.10;;;0.60;;
79173;SDS011;68599;49.142;9.124;2023-11-21T09:22:05;3.30;;;0.90;;
79173;SDS011;68599;49.142;9.124;2023-11-21T09:24:32;1.60;;;0.70;;
79173;SDS011;68599;49.142;9.124;2023-11-21T09:26:59;1.20;;;0.60;;
79173;SDS011;68599;49.142;9.124;2023-11-21T09:29:27;0.60;;;0.30;;
79173;SDS011;68599;49.142;9.124;2023-11-21T09:34:21;0.60;;;0.40;;
79173;SDS011;68599;49.142;9.124;2023-11-21T09:36:48;1.90;;;0.50;;
79173;SDS011;68599;49.142;9.124;2023-11-21T09:39:16;2.00;;;0.60;;
79173;SDS011;68599;49.142;9.124;2023-11-21T09:41:51;2.00;;;0.80;;
79173;SDS011;68599;49.142;9.124;2023-11-21T09:47:17;0.90;;;0.60;;
79173;SDS011;68599;49.142;9.124;2023-11-21T09:49:47;1.70;;;0.90;;
79173;SDS011;68599;49.142;9.124;2023-11-21T09:52:18;2.20;;;0.90;;
79173;SDS011;68599;49.142;9.124;2023-11-21T09:54:52;1.20;;;0.90;;
79173;SDS011;68599;49.142;9.124;2023-11-21T09:57:20;1.50;;;0.70;;
79173;SDS011;68599;49.142;9.124;2023-11-21T09:59:52;2.20;;;1.20;;
79173;SDS011;68599;49.142;9.124;2023-11-21T10:02:26;1.60;;;1.10;;
79173;SDS011;68599;49.142;9.124;2023-11-21T10:04:59;1.30;;;0.70;;
79173;SDS011;68599;49.142;9.124;2023-11-21T10:07:27;3.40;;;1.00;;
79173;SDS011;68599;49.142;9.124;2023-11-21T10:09:56;1.20;;;0.90;;
79173;SDS011;68599;49.142;9.124;2023-11-21T10:12:25;3.10;;;1.10;;
79173;SDS011;68599;49.142;9.124;2023-11-21T10:14:54;1.00;;;0.70;;
79173;SDS011;68599;49.142;9.124;2023-11-21T10:17:24;1.30;;;0.90;;
79173;SDS011;68599;49.142;9.124;2023-11-21T10:19:56;2.20;;;1.30;;
79173;SDS011;68599;49.142;9.124;2023-11-21T10:22:24;2.20;;;1.40;;
79173;SDS011;68599;49.142;9.124;2023-11-21T10:24:52;1.80;;;1.10;;
79173;SDS011;68599;49.142;9.124;2023-11-21T10:27:20;1.70;;;1.00;;
79173;SDS011;68599;49.142;9.124;2023-11-21T10:29:47;2.80;;;0.90;;
79173;SDS011;68599;49.142;9.124;2023-11-21T10:32:13;2.60;;;1.20;;
79173;SDS011;68599;49.142;9.124;2023-11-21T10:34:40;1.30;;;0.90;;
79173;SDS011;68599;49.142;9.124;2023-11-21T10:37:11;1.80;;;0.70;;
79173;SDS011;68599;49.142;9.124;2023-11-21T10:39:39;1.60;;;0.80;;
79173;SDS011;68599;49.142;9.124;2023-11-21T10:42:08;1.40;;;0.80;;
79173;SDS011;68599;49.142;9.124;2023-11-21T10:44:35;1.70;;;1.00;;
79173;SDS011;68599;49.142;9.124;2023-11-21T10:47:02;1.90;;;1.10;;
79173;SDS011;68599;49.142;9.124;2023-11-21T10:49:29;1.40;;;1.00;;
79173;SDS011;68599;49.142;9.124;2023-11-21T10:51:56;1.10;;;0.70;;
79173;SDS011;68599;49.142;9.124;2023-11-21T10:54:24;2.50;;;1.10;;
79173;SDS011;68599;49.142;9.124;2023-11-21T10:56:57;3.20;;;0.90;;
79173;SDS011;68599;49.142;9.124;2023-11-21T10:59:29;1.40;;;0.80;;
79173;SDS011;68599;49.142;9.124;2023-11-21T11:01:58;1.40;;;0.80;;
79173;SDS011;68599;49.142;9.124;2023-11-21T11:04:27;1.10;;;0.60;;
79173;SDS011;68599;49.142;9.124;2023-11-21T11:06:55;1.00;;;0.60;;
79173;SDS011;68599;49.142;9.124;2023-11-21T11:09:24;1.40;;;0.60;;
79173;SDS011;68599;49.142;9.124;2023-11-21T11:11:51;1.10;;;0.90;;
79173;SDS011;68599;49.142;9.124;2023-11-21T11:14:19;0.80;;;0.50;;
79173;SDS011;68599;49.142;9.124;2023-11-21T11:19:15;1.40;;;0.30;;
79173;SDS011;68599;49.142;9.124;2023-11-21T11:24:52;1.00;;;0.40;;
79173;SDS011;68599;49.142;9.124;2023-11-21T11:36:41;0.40;;;0.20;;
79173;SDS011;68599;49.142;9.124;2023-11-21T11:39:57;0.70;;;0.30;;
79173;SDS011;68599;49.142;9.124;2023-11-21T11:42:10;0.70;;;0.30;;
79173;SDS011;68599;49.142;9.124;2023-11-21T11:47:13;0.60;;;0.40;;
79173;SDS011;68599;49.142;9.124;2023-11-21T11:50:01;1.10;;;0.40;;
79173;SDS011;68599;49.142;9.124;2023-11-21T11:55:14;1.10;;;0.50;;
79173;SDS011;68599;49.142;9.124;2023-11-21T11:57:45;0.60;;;0.30;;
79173;SDS011;68599;49.142;9.124;2023-11-21T12:02:52;2.00;;;0.60;;
79173;SDS011;68599;49.142;9.124;2023-11-21T12:05:21;1.20;;;0.80;;
79173;SDS011;68599;49.142;9.124;2023-11-21T12:10:21;1.70;;;0.80;;
79173;SDS011;68599;49.142;9.124;2023-11-21T12:12:54;1.30;;;0.80;;
79173;SDS011;68599;49.142;9.124;2023-11-21T12:15:22;1.00;;;0.50;;
79173;SDS011;68599;49.142;9.124;2023-11-21T12:17:49;0.90;;;0.50;;
79173;SDS011;68599;49.142;9.124;2023-11-21T12:25:18;1.90;;;0.60;;
79173;SDS011;68599;49.142;9.124;2023-11-21T12:27:46;1.30;;;0.60;;
79173;SDS011;68599;49.142;9.124;2023-11-21T12:30:19;1.10;;;0.60;;
79173;SDS011;68599;49.142;9.124;2023-11-21T12:32:52;0.70;;;0.40;;
79173;SDS011;68599;49.142;9.124;2023-11-21T12:35:24;1.10;;;0.60;;
79173;SDS011;68599;49.142;9.124;2023-11-21T12:37:53;1.70;;;0.90;;
79173;SDS011;68599;49.142;9.124;2023-11-21T12:40:23;2.00;;;0.90;;
79173;SDS011;68599;49.142;9.124;2023-11-21T12:42:52;1.50;;;0.60;;
79173;SDS011;68599;49.142;9.124;2023-11-21T12:45:24;1.60;;;0.40;;
79173;SDS011;68599;49.142;9.124;2023-11-21T12:47:56;2.40;;;1.00;;
79173;SDS011;68599;49.142;9.124;2023-11-21T12:50:27;2.10;;;1.00;;
79173;SDS011;68599;49.142;9.124;2023-11-21T12:52:59;1.20;;;0.60;;
79173;SDS011;68599;49.142;9.124;2023-11-21T12:55:30;1.00;;;0.60;;
79173;SDS011;68599;49.142;9.124;2023-11-21T12:57:59;2.40;;;0.60;;
79173;SDS011;68599;49.142;9.124;2023-11-21T13:00:39;1.60;;;0.60;;
79173;SDS011;68599;49.142;9.124;2023-11-21T13:03:10;1.50;;;0.90;;
79173;SDS011;68599;49.142;9.124;2023-11-21T13:05:40;0.80;;;0.50;;
79173;SDS011;68599;49.142;9.124;2023-11-21T13:08:14;1.10;;;0.40;;
79173;SDS011;68599;49.142;9.124;2023-11-21T13:10:46;1.20;;;0.60;;
79173;SDS011;68599;49.142;9.124;2023-11-21T13:13:16;1.40;;;0.50;;
79173;SDS011;68599;49.142;9.124;2023-11-21T13:15:54;1.10;;;0.70;;
79173;SDS011;68599;49.142;9.124;2023-11-21T13:18:26;2.30;;;0.80;;
79173;SDS011;68599;49.142;9.124;2023-11-21T13:20:54;2.20;;;0.70;;
79173;SDS011;68599;49.142;9.124;2023-11-21T13:23:21;2.20;;;0.90;;
79173;SDS011;68599;49.142;9.124;2023-11-21T13:25:49;2.70;;;1.20;;
79173;SDS011;68599;49.142;9.124;2023-11-21T13:28:27;1.10;;;0.60;;
79173;SDS011;68599;49.142;9.124;2023-11-21T13:30:59;1.40;;;0.70;;
79173;SDS011;68599;49.142;9.124;2023-11-21T13:33:37;3.70;;;1.00;;
79173;SDS011;68599;49.142;9.124;2023-11-21T13:36:05;3.70;;;1.30;;
79173;SDS011;68599;49.142;9.124;2023-11-21T13:38:37;3.80;;;1.00;;
79173;SDS011;68599;49.142;9.124;2023-11-21T13:41:09;2.40;;;1.10;;
79173;SDS011;68599;49.142;9.124;2023-11-21T13:43:36;2.70;;;1.00;;
79173;SDS011;68599;49.142;9.124;2023-11-21T13:46:04;2.40;;;1.40;;
79173;SDS011;68599;49.142;9.124;2023-11-21T13:48:40;1.30;;;0.80;;
79173;SDS011;68599;49.142;9.124;2023-11-21T13:51:17;1.80;;;0.90;;
79173;SDS011;68599;49.142;9.124;2023-11-21T13:53:44;2.60;;;1.20;;
79173;SDS011;68599;49.142;9.124;2023-11-21T13:56:14;2.70;;;0.90;;
79173;SDS011;68599;49.142;9.124;2023-11-21T13:58:46;1.50;;;0.70;;
79173;SDS011;68599;49.142;9.124;2023-11-21T14:01:20;1.60;;;1.10;;
79173;SDS011;68599;49.142;9.124;2023-11-21T14:03:57;1.60;;;0.90;;
79173;SDS011;68599;49.142;9.124;2023-11-21T14:06:34;1.90;;;0.90;;
79173;SDS011;68599;49.142;9.124;2023-11-21T14:11:52;1.80;;;0.90;;
79173;SDS011;68599;49.142;9.124;2023-11-21T14:14:22;2.90;;;0.90;;
79173;SDS011;68599;49.142;9.124;2023-11-21T14:16:51;1.90;;;0.70;;
79173;SDS011;68599;49.142;9.124;2023-11-21T14:19:18;2.40;;;0.80;;
79173;SDS011;68599;49.142;9.124;2023-11-21T14:21:45;2.20;;;0.80;;
79173;SDS011;68599;49.142;9.124;2023-11-21T14:24:15;1.40;;;0.90;;
79173;SDS011;68599;49.142;9.124;2023-11-21T14:26:45;3.00;;;0.90;;
79173;SDS011;68599;49.142;9.124;2023-11-21T14:29:13;1.80;;;0.80;;
79173;SDS011;68599;49.142;9.124;2023-11-21T14:31:43;1.10;;;0.60;;
79173;SDS011;68599;49.142;9.124;2023-11-21T14:34:10;2.80;;;1.00;;
79173;SDS011;68599;49.142;9.124;2023-11-21T14:36:38;1.80;;;1.20;;
79173;SDS011;68599;49.142;9.124;2023-11-21T14:41:50;2.00;;;0.90;;
79173;SDS011;68599;49.142;9.124;2023-11-21T14:44:19;1.80;;;1.00;;
79173;SDS011;68599;49.142;9.124;2023-11-21T14:46:46;1.40;;;1.00;;
79173;SDS011;68599;49.142;9.124;2023-11-21T14:49:17;1.80;;;1.10;;
79173;SDS011;68599;49.142;9.124;2023-11-21T14:51:51;1.30;;;0.90;;
79173;SDS011;68599;49.142;9.124;2023-11-21T14:54:46;2.10;;;1.10;;
79173;SDS011;68599;49.142;9.124;2023-11-21T14:57:18;2.90;;;1.50;;
79173;SDS011;68599;49.142;9.124;2023-11-21T14:59:47;2.20;;;1.20;;
79173;SDS011;68599;49.142;9.124;2023-11-21T15:02:19;1.90;;;1.30;;
79173;SDS011;68599;49.142;9.124;2023-11-21T15:05:09;3.70;;;1.50;;
79173;SDS011;68599;49.142;9.124;2023-11-21T15:07:43;2.40;;;1.70;;
79173;SDS011;68599;49.142;9.124;2023-11-21T15:10:12;3.00;;;1.80;;
79173;SDS011;68599;49.142;9.124;2023-11-21T15:12:42;3.20;;;1.80;;
79173;SDS011;68599;49.142;9.124;2023-11-21T15:15:10;3.00;;;1.80;;
79173;SDS011;68599;49.142;9.124;2023-11-21T15:17:38;3.90;;;2.20;;
79173;SDS011;68599;49.142;9.124;2023-11-21T15:20:06;3.20;;;2.00;;
79173;SDS011;68599;49.142;9.124;2023-11-21T15:22:35;3.20;;;1.90;;
79173;SDS011;68599;49.142;9.124;2023-11-21T15:25:02;2.80;;;1.60;;
79173;SDS011;68599;49.142;9.124;2023-11-21T15:27:36;2.60;;;1.50;;
79173;SDS011;68599;49.142;9.124;2023-11-21T15:30:03;3.50;;;1.90;;
79173;SDS011;68599;49.142;9.124;2023-11-21T15:32:30;2.90;;;2.00;;
79173;SDS011;68599;49.142;9.124;2023-11-21T15:34:57;3.60;;;1.60;;
79173;SDS011;68599;49.142;9.124;2023-11-21T15:37:27;3.80;;;1.80;;
79173;SDS011;68599;49.142;9.124;2023-11-21T15:39:55;5.70;;;2.50;;
79173;SDS011;68599;49.142;9.124;2023-11-21T15:42:21;6.10;;;2.60;;
79173;SDS011;68599;49.142;9.124;2023-11-21T15:44:48;6.30;;;3.30;;
79173;SDS011;68599;49.142;9.124;2023-11-21T15:47:16;3.40;;;2.10;;
79173;SDS011;68599;49.142;9.124;2023-11-21T15:49:43;3.80;;;1.90;;
79173;SDS011;68599;49.142;9.124;2023-11-21T15:52:10;2.10;;;1.20;;
79173;SDS011;68599;49.142;9.124;2023-11-21T15:54:37;3.50;;;1.70;;
79173;SDS011;68599;49.142;9.124;2023-11-21T15:57:04;5.00;;;1.50;;
79173;SDS011;68599;49.142;9.124;2023-11-21T15:59:32;3.10;;;1.90;;
79173;SDS011;68599;49.142;9.124;2023-11-21T16:02:00;3.10;;;1.50;;